Latest Coastal Weather Observations for Thevenard

IDS60701

Issued at 3:41 pm CDT Monday 6 December 2021 (issued every 10 minutes, with the page automatically refreshed every 10 minutes)

About coastal observations | Map of coastal stations | Coastal observations for SA | Marine services | Other Formats
Station Details ID: 018207 Name: THEVENARD NTC AWS Lat: -32.15 Lon: 133.64 Height: 5.0 m
Data from the previous 72 hours. | See also: Recent months for locations in South Australia
Date/Time
CDT
Wind Sea
Height
m
Swell Vis
km
Cloud Weather Temp
°C
Press
MSL
hPa
Rain since
9am
mm
Dir  Spd
kts
Gust
kts
Height
m
Period
s
Dir
06/03:30pm SSW 4 12 - - - - - - - 18.0 1014.2 -
06/03:00pm SW 3 11 - - - - - - - 17.9 1014.2 -
06/02:30pm S 3 9 - - - - - - - 17.9 1014.1 -
06/02:00pm SSW 4 11 - - - - - - - 17.7 1014.1 -
06/01:30pm SSW 3 9 - - - - - - - 17.8 1014.2 -
06/01:00pm SSW 3 10 - - - - - - - 17.9 1014.4 -
06/12:30pm WSW 4 10 - - - - - - - 18.4 1014.5 -
06/12:00pm WSW 3 6 - - - - - - - 18.4 1014.6 -
06/11:30am WSW 2 5 - - - - - - - 17.7 1014.6 -
06/11:00am WSW 2 4 - - - - - - - 17.8 1014.4 -
06/10:30am SSW 2 4 - - - - - - - 17.7 1014.6 -
06/10:00am SSE 1 4 - - - - - - - 17.9 1014.8 -
06/09:30am SSE 2 4 - - - - - - - 17.4 1014.9 -
06/09:00am CALM 0 1 - - - - - - - 16.8 1014.8 -
06/08:30am NW 2 4 - - - - - - - 16.0 1014.4 -
06/08:00am NNE 1 3 - - - - - - - 16.0 1014.0 -
06/07:30am E 2 3 - - - - - - - 16.3 1013.5 -
06/07:00am ESE 3 5 - - - - - - - 16.0 1013.1 -
06/06:30am SSE 5 8 - - - - - - - 16.4 1012.8 -
06/06:00am SSE 4 9 - - - - - - - 16.6 1012.8 -
06/05:30am SSE 3 9 - - - - - - - 16.5 1012.7 -
06/05:00am S 3 8 - - - - - - - 16.5 1012.8 -
06/04:30am SSE 5 8 - - - - - - - 16.4 1012.8 -
06/04:00am SSE 7 10 - - - - - - - 16.6 1012.7 -
06/03:30am SSE 7 9 - - - - - - - 16.4 1013.0 -
06/03:00am SE 10 12 - - - - - - - 16.6 1013.3 -
06/02:30am SSE 10 13 - - - - - - - 16.7 1013.6 -
06/02:00am SSE 10 14 - - - - - - - 16.9 1013.9 -
06/01:30am SSE 9 14 - - - - - - - 16.8 1014.0 -
06/01:00am SSE 10 15 - - - - - - - 17.1 1013.9 -
06/12:30am SSE 11 15 - - - - - - - 17.3 1014.1 -
06/12:00am SSE 12 15 - - - - - - - 17.3 1014.4 -
 
Date/Time
CDT
Wind Sea
Height
m
Swell Vis
km
Cloud Weather Temp
°C
Press
MSL
hPa
Rain since
9am
mm
Dir  Spd
kts
Gust
kts
Height
m
Period
s
Dir
05/11:30pm SSE 12 17 - - - - - - - 17.7 1014.4 -
05/11:00pm SSE 12 16 - - - - - - - 17.7 1014.5 -
05/10:30pm SSE 12 16 - - - - - - - 17.8 1014.4 -
05/10:00pm SSE 10 16 - - - - - - - 17.8 1014.3 -
05/09:30pm SSE 10 16 - - - - - - - 17.7 1014.4 -
05/09:00pm SSE 6 12 - - - - - - - 17.9 1014.3 -
05/08:30pm SSE 5 11 - - - - - - - 18.2 1014.2 -
05/08:00pm S 3 10 - - - - - - - 17.8 1014.2 -
05/07:30pm SSE 4 9 - - - - - - - 18.1 1014.1 -
05/07:00pm SSE 5 11 - - - - - - - 18.4 1014.0 -
05/06:30pm SSE 3 10 - - - - - - - 18.2 1013.9 -
05/06:00pm SSE 6 14 - - - - - - - 18.2 1014.1 -
05/05:30pm SW 3 9 - - - - - - - 17.9 1014.2 -
05/05:00pm SW 4 8 - - - - - - - 18.4 1014.6 -
05/04:30pm SW 3 9 - - - - - - - 18.5 1014.9 -
05/04:00pm SSW 3 8 - - - - - - - 18.7 1014.9 -
05/03:30pm SSW 3 8 - - - - - - - 18.7 1015.5 -
05/03:00pm WSW 3 5 - - - - - - - 18.8 1015.9 -
05/02:30pm WSW 3 7 - - - - - - - 19.0 1016.3 -
05/02:00pm WSW 1 4 - - - - - - - 19.0 1016.6 -
05/01:30pm SSW 1 6 - - - - - - - 18.7 1016.8 -
05/01:00pm SSE 2 5 - - - - - - - 18.6 1017.0 -
05/12:30pm SW 2 4 - - - - - - - 18.6 1017.5 -
05/12:00pm WSW 2 3 - - - - - - - 19.0 1018.1 -
05/11:30am SW 1 3 - - - - - - - 19.4 1018.3 -
05/11:00am ENE 1 4 - - - - - - - 18.1 1018.6 -
05/10:30am SE 4 6 - - - - - - - 17.4 1018.6 -
05/10:00am SE 8 11 - - - - - - - 17.1 1018.9 -
05/09:30am SSE 11 14 - - - - - - - 16.7 1018.8 -
05/09:00am SSE 10 13 - - - - - - - 16.6 1018.9 -
05/08:30am SSE 12 15 - - - - - - - 16.3 1019.0 -
05/08:00am SE 11 15 - - - - - - - 16.2 1018.9 -
05/07:30am SE 9 11 - - - - - - - 15.9 1018.8 -
05/07:00am SE 4 7 - - - - - - - 15.9 1019.1 -
05/06:30am ESE 3 6 - - - - - - - 16.1 1019.1 -
05/06:00am SE 9 13 - - - - - - - 16.4 1018.9 -
05/05:30am SSE 11 14 - - - - - - - 16.5 1018.3 -
05/05:00am SE 11 14 - - - - - - - 16.9 1017.6 -
05/04:30am SE 11 13 - - - - - - - 17.0 1017.5 -
05/04:00am SE 9 12 - - - - - - - 17.2 1017.8 -
05/03:30am SSE 8 11 - - - - - - - 17.5 1018.2 -
05/03:00am SSE 8 11 - - - - - - - 17.4 1018.0 -
05/02:30am S 8 11 - - - - - - - 17.5 1018.1 -
05/02:00am S 9 11 - - - - - - - 17.4 1018.5 -
05/01:30am S 9 13 - - - - - - - 17.2 1018.6 -
05/01:00am SSE 12 16 - - - - - - - 17.1 1018.7 -
05/12:30am SSE 15 19 - - - - - - - 17.2 1018.6 -
05/12:00am SSE 16 20 - - - - - - - 17.2 1018.3 -
 
Date/Time
CDT
Wind Sea
Height
m
Swell Vis
km
Cloud Weather Temp
°C
Press
MSL
hPa
Rain since
9am
mm
Dir  Spd
kts
Gust
kts
Height
m
Period
s
Dir
04/11:30pm SSE 16 21 - - - - - - - 17.4 1018.7 -
04/11:00pm SSE 16 21 - - - - - - - 17.3 1019.0 -
04/10:30pm SSE 14 20 - - - - - - - 17.2 1019.5 -
04/10:00pm SSE 15 21 - - - - - - - 17.4 1019.3 -
04/09:30pm S 17 23 - - - - - - - 17.3 1019.4 -
04/09:00pm S 18 25 - - - - - - - 17.3 1019.4 -
04/08:30pm S 19 27 - - - - - - - 17.1 1019.0 -
04/08:00pm SSE 18 25 - - - - - - - 17.5 1019.2 -
04/07:50pm S 18 28 - - - - - - - 17.3 1019.0 -
04/07:30pm S 19 25 - - - - - - - 17.3 1018.7 -
04/07:00pm S 18 24 - - - - - - - 17.5 1019.3 -
04/06:30pm S 17 22 - - - - - - - 17.3 1019.1 -
04/06:00pm S 13 18 - - - - - - - 17.6 1019.6 -
04/05:30pm S 14 19 - - - - - - - 17.3 1019.9 -
04/05:00pm S 15 19 - - - - - - - 17.2 1019.9 -
04/04:30pm S 15 20 - - - - - - - 17.3 1020.5 -
04/04:00pm S 15 19 - - - - - - - 17.3 1021.1 -
04/03:30pm S 14 19 - - - - - - - 17.1 1021.6 -
04/03:00pm S 15 19 - - - - - - - 16.9 1021.8 -
04/02:30pm S 15 19 - - - - - - - 16.9 1022.1 -
04/02:00pm SSW 15 19 - - - - - - - 17.4 1022.3 -
04/01:30pm SSW 13 17 - - - - - - - 17.6 1022.9 -
04/01:00pm SSW 11 15 - - - - - - - 17.7 1023.3 -
04/12:30pm S 10 13 - - - - - - - 17.3 1023.6 -
04/12:00pm S 12 16 - - - - - - - 17.2 1023.1 -
04/11:30am SSE 13 17 - - - - - - - 17.0 1022.9 -
04/11:00am SSE 12 17 - - - - - - - 16.6 1023.0 -
04/10:30am SSE 14 19 - - - - - - - 16.3 1022.8 -
04/10:00am SSE 16 22 - - - - - - - 16.4 1022.5 -
04/09:30am SSE 16 21 - - - - - - - 15.9 1022.5 -
04/09:00am SSE 16 21 - - - - - - - 15.9 1022.5 -
04/08:30am SE 15 22 - - - - - - - 16.0 1022.1 -
04/08:00am SE 14 19 - - - - - - - 15.7 1022.1 -
04/07:30am SSE 14 20 - - - - - - - 15.8 1021.9 -
04/07:00am SE 10 15 - - - - - - - 15.2 1021.8 -
04/06:30am SE 11 18 - - - - - - - 15.6 1021.7 -
04/06:00am SE 13 17 - - - - - - - 15.4 1021.0 -
04/05:30am SE 8 12 - - - - - - - 15.5 1020.9 -
04/05:00am SE 11 18 - - - - - - - 15.9 1020.5 -
04/04:30am SE 13 21 - - - - - - - 16.0 1019.2 -
04/04:10am SE 15 26 - - - - - - - 16.7 1019.9 -
04/04:00am SE 18 25 - - - - - - - 16.7 1019.3 -
04/03:30am SSE 21 28 - - - - - - - 16.7 1020.2 -
04/03:00am SSE 17 22 - - - - - - - 16.9 1020.5 -
04/02:30am SSE 16 22 - - - - - - - 17.0 1020.9 -

Other formats

Comma delimited format used in spreadsheet applications
http://www.bom.gov.au/fwo/IDS60701/IDS60701.95652.axf

JavaScript Object Notation format (JSON) in row-major order
http://www.bom.gov.au/fwo/IDS60701/IDS60701.95652.json

Data quality

Most of these data are generated automatically and are frequently updated. Quality checks on data are not normally performed. It is possible for incorrect values to appear. Refer to information at About Latest Weather Observations and please check the disclaimer before using these data.